Overview Statistics Trail Chart Weather Telemetry Raw packets
 

This is the latest recevied weather packets stored in our database for station/object JE6MIQ-13. If no packets are shown the sender has not sent any weather packets the latest 10 day(s).

<< 35 36 37 38 39 >>
Time Temp. Humidity Pressure Rain* Wind** Luminosity Snow
1787787653 33.89° C 29% 1001.8 hPa 0 mm - - -
1787786751 32.22° C 46% 1002.2 hPa 0 mm - - -
1787785923 32.78° C 50% 1002.5 hPa 0 mm - - -
1787785024 32.22° C 45% 1002.7 hPa 0 mm - - -
1787784125 30.56° C 47% 1003.1 hPa 0 mm - - -
1787783224 29.44° C 63% 1003.7 hPa 0 mm - - -
1787782323 27.78° C 74% 1003.9 hPa 0 mm - - -
1787781424 27.22° C 75% 1004.2 hPa 0 mm - - -
1787780525 26.67° C 76% 1004.1 hPa 0 mm - - -
1787779625 26.67° C 79% 1004.5 hPa 0 mm - - -
1787778725 26.11° C 80% 1005 hPa 0 mm - - -
1787777824 25.56° C 80% 1005 hPa 0 mm - - -
1787776925 25.56° C 80% 1004.9 hPa 0 mm - - -
1787776024 25.56° C 80% 1004.8 hPa 0 mm - - -
1787775124 25.56° C 79% 1004.7 hPa 0 mm - - -
1787774223 25.56° C 79% 1004.9 hPa 0 mm - - -
1787773324 25.56° C 78% 1004.7 hPa 0 mm - - -
1787772425 25.56° C 78% 1005 hPa 0 mm - - -
1787771524 25.56° C 78% 1004.7 hPa 0 mm - - -
1787770626 25.56° C 76% 1004.8 hPa 0 mm - - -
1787769725 26.11° C 76% 1004.7 hPa 0 mm - - -
1787768825 26.11° C 75% 1004.6 hPa 0 mm - - -
1787767924 26.11° C 75% 1004.4 hPa 0 mm - - -
1787767024 26.11° C 74% 1004.1 hPa 0 mm - - -
1787766124 26.67° C 73% 1004 hPa 0 mm - - -

* Rain latest hour (hover to see other rain measurements)
** Current wind speed in m/s (hover to see current wind gust speed)